Dades meteomassalio
Diari Summary for Noviembre 5, 2017 Units:  English    Metric   Both
« Previous Day
Next Day »
Diari Semanal Mensual Anual Personalitzat
  Maxima: Minima: Mijana:
Temperatura: TemperatureC °F 10.0 °F 12.7 °F
Rosada: DewpointC °F 4.6 °F 6.8 °F
Humitat: Humidity % 51 % 68 %
Velocitat del vent: WindSpeedKMH mph 22.5 mph 42.8 mph
Racha vent: WindSpeedGustKMH mph - -
Vent:- - SW
Pressio: PressurehPa in 1015.1 in -
Pluja: 0.3 in    
Historical Graphs
 
 
Tabular Data for Noviembre 5, 2017
Time Temperature Dew Point Pressure Wind Wind Speed Wind Gust Humidity Rainfall Rate (Hourly) solar Conditions
TemperatureC °F DewpointC °F PressurehPa in Calm     Humidity % HourlyPrecipMM in SolarRadiationWatts/m^2 W/m2 Conditions
00:00 13.3 °F 10.7 °F 1015.1 in SW 22.5 mph 22.5 mph 84 % 0.0 in 0.0 W/m2 CLR
00:05 13.3 °F 10.7 °F 1015.1 in SW 29.0 mph 29.0 mph 84 % 0.0 in 0.0 W/m2 RA
00:10 13.3 °F 10.7 °F 1015.1 in SW 27.8 mph 27.8 mph 84 % 0.0 in 0.0 W/m2 CLR
00:12 13.3 °F 10.7 °F 1015.1 in SW 25.7 mph 25.7 mph 84 % 0.0 in 0.0 W/m2 CLR
00:17 13.3 °F 10.7 °F 1015.1 in SSW 31.5 mph 31.5 mph 84 % 0.0 in 0.0 W/m2 CLR
00:22 12.8 °F 9.9 °F 1015.1 in WSW 31.5 mph 31.5 mph 83 % 0.0 in 0.0 W/m2 CLR
00:27 12.8 °F 9.9 °F 1015.1 in SSW 27.8 mph 27.8 mph 83 % 0.0 in 0.0 W/m2 CLR
00:32 13.3 °F 10.3 °F 1015.1 in SSW 27.8 mph 27.8 mph 82 % 0.0 in 0.0 W/m2 CLR
00:37 12.8 °F 9.8 °F 1015.5 in SSW 27.8 mph 27.8 mph 82 % 0.0 in 0.0 W/m2 CLR
00:42 12.8 °F 9.8 °F 1015.5 in SSW 30.6 mph 30.6 mph 82 % 0.0 in 0.0 W/m2 CLR
00:47 12.8 °F 9.6 °F 1015.5 in SW 24.1 mph 24.1 mph 81 % 0.0 in 0.0 W/m2 CLR
00:52 12.8 °F 9.6 °F 1015.5 in SW 31.5 mph 31.5 mph 81 % 0.0 in 0.0 W/m2 CLR
00:57 12.8 °F 9.6 °F 1015.5 in SW 37.0 mph 37.0 mph 81 % 0.0 in 0.0 W/m2 CLR
01:02 12.8 °F 9.4 °F 1015.5 in SW 31.5 mph 31.5 mph 80 % 0.0 in 0.0 W/m2 CLR
01:07 12.8 °F 9.4 °F 1015.5 in SW 29.6 mph 29.6 mph 80 % 0.0 in 0.0 W/m2 CLR
01:12 12.8 °F 9.6 °F 1015.5 in SW 29.6 mph 29.6 mph 81 % 0.0 in 0.0 W/m2 CLR
01:17 12.8 °F 9.4 °F 1015.5 in SW 25.9 mph 25.9 mph 80 % 0.0 in 0.0 W/m2 CLR
01:22 12.8 °F 9.4 °F 1015.5 in WSW 37.0 mph 37.0 mph 80 % 0.0 in 0.0 W/m2 CLR
01:27 12.8 °F 9.4 °F 1015.8 in SW 27.8 mph 27.8 mph 80 % 0.0 in 0.0 W/m2 CLR
01:32 12.8 °F 9.4 °F 1015.8 in SW 31.5 mph 31.5 mph 80 % 0.0 in 0.0 W/m2 CLR
01:37 12.8 °F 9.4 °F 1015.8 in SW 32.2 mph 32.2 mph 80 % 0.0 in 0.0 W/m2 CLR
01:42 12.8 °F 9.6 °F 1015.8 in SSW 42.6 mph 42.6 mph 81 % 0.0 in 0.0 W/m2 CLR
01:47 12.8 °F 9.6 °F 1015.8 in SSW 32.2 mph 32.2 mph 81 % 0.0 in 0.0 W/m2 CLR
01:52 12.8 °F 9.6 °F 1015.8 in SSW 35.2 mph 35.2 mph 81 % 0.0 in 0.0 W/m2 CLR
01:57 12.8 °F 9.6 °F 1015.8 in SW 30.6 mph 30.6 mph 81 % 0.0 in 0.0 W/m2 CLR
02:02 12.8 °F 9.6 °F 1015.8 in SSW 37.0 mph 37.0 mph 81 % 0.0 in 0.0 W/m2 CLR
02:07 12.8 °F 9.8 °F 1015.8 in SSW 38.9 mph 38.9 mph 82 % 0.0 in 0.0 W/m2 CLR
02:12 12.8 °F 9.8 °F 1015.8 in SW 37.0 mph 37.0 mph 82 % 0.0 in 0.0 W/m2 CLR
02:17 12.8 °F 9.8 °F 1015.8 in SW 27.8 mph 27.8 mph 82 % 0.0 in 0.0 W/m2 CLR
02:22 12.8 °F 9.6 °F 1015.8 in SW 35.2 mph 35.2 mph 81 % 0.0 in 0.0 W/m2 CLR
02:27 12.2 °F 9.1 °F 1015.8 in SW 48.1 mph 48.1 mph 81 % 0.0 in 0.0 W/m2 CLR
02:32 12.2 °F 9.1 °F 1015.8 in SSW 38.9 mph 38.9 mph 81 % 0.0 in 0.0 W/m2 CLR
02:37 12.2 °F 9.1 °F 1015.8 in SW 29.6 mph 29.6 mph 81 % 0.0 in 0.0 W/m2 CLR
02:42 12.8 °F 9.6 °F 1015.8 in SW 40.2 mph 40.2 mph 81 % 0.0 in 0.0 W/m2 CLR
02:47 12.8 °F 9.4 °F 1015.8 in SW 40.7 mph 40.7 mph 80 % 0.0 in 0.0 W/m2 CLR
02:53 12.2 °F 8.9 °F 1015.8 in SW 31.5 mph 31.5 mph 80 % 0.0 in 0.0 W/m2 CLR
02:58 12.2 °F 8.9 °F 1016.1 in SW 31.5 mph 31.5 mph 80 % 0.0 in 0.0 W/m2 CLR
03:03 12.2 °F 8.7 °F 1016.1 in SSW 33.3 mph 33.3 mph 79 % 0.0 in 0.0 W/m2 CLR
03:08 12.8 °F 9.2 °F 1016.1 in SW 40.7 mph 40.7 mph 79 % 0.0 in 0.0 W/m2 CLR
03:13 12.8 °F 9.2 °F 1016.1 in SSW 40.2 mph 40.2 mph 79 % 0.0 in 0.0 W/m2 CLR
03:18 12.8 °F 9.2 °F 1016.1 in SW 37.0 mph 37.0 mph 79 % 0.0 in 0.0 W/m2 CLR
03:23 12.8 °F 9.2 °F 1016.1 in SW 37.0 mph 37.0 mph 79 % 0.0 in 0.0 W/m2 CLR
03:28 12.8 °F 9.2 °F 1016.1 in SW 31.5 mph 31.5 mph 79 % 0.0 in 0.0 W/m2 CLR
03:33 12.2 °F 8.7 °F 1016.1 in SW 31.5 mph 31.5 mph 79 % 0.0 in 0.0 W/m2 CLR
03:38 12.2 °F 8.7 °F 1016.1 in SSW 35.2 mph 35.2 mph 79 % 0.0 in 0.0 W/m2 CLR
03:43 12.2 °F 8.7 °F 1016.1 in SSW 33.3 mph 33.3 mph 79 % 0.0 in 0.0 W/m2 CLR
03:48 12.2 °F 8.5 °F 1016.1 in SW 35.2 mph 35.2 mph 78 % 0.0 in 0.0 W/m2 CLR
03:53 12.8 °F 9.2 °F 1016.1 in SW 35.2 mph 35.2 mph 79 % 0.0 in 0.0 W/m2 CLR
03:58 12.8 °F 9.2 °F 1016.1 in SW 37.0 mph 37.0 mph 79 % 0.0 in 0.0 W/m2 CLR
04:03 12.8 °F 9.1 °F 1016.1 in SW 42.6 mph 42.6 mph 78 % 0.0 in 0.0 W/m2 CLR
04:08 12.8 °F 9.1 °F 1016.1 in SW 38.9 mph 38.9 mph 78 % 0.0 in 0.0 W/m2 CLR
04:13 12.8 °F 9.1 °F 1016.1 in SW 37.0 mph 37.0 mph 78 % 0.0 in 0.0 W/m2 CLR
04:19 12.8 °F 9.1 °F 1016.5 in SW 35.4 mph 35.4 mph 78 % 0.0 in 0.0 W/m2 CLR
04:21 12.8 °F 9.1 °F 1016.1 in SSW 33.3 mph 33.3 mph 78 % 0.0 in 0.0 W/m2 CLR
04:23 12.8 °F 9.1 °F 1016.5 in SW 37.0 mph 37.0 mph 78 % 0.0 in 0.0 W/m2 CLR
04:25 12.8 °F 9.1 °F 1016.5 in SW 42.6 mph 42.6 mph 78 % 0.0 in 0.0 W/m2 CLR
04:27 12.8 °F 9.1 °F 1016.5 in SW 37.0 mph 37.0 mph 78 % 0.0 in 0.0 W/m2 CLR
04:29 12.8 °F 9.1 °F 1016.1 in WSW 43.4 mph 43.4 mph 78 % 0.0 in 0.0 W/m2 CLR
04:32 12.8 °F 9.1 °F 1016.1 in SW 40.7 mph 40.7 mph 78 % 0.3 in 0.0 W/m2 RA
04:37 12.8 °F 9.1 °F 1016.5 in SW 37.0 mph 37.0 mph 78 % 0.3 in 0.0 W/m2 CLR
04:38 12.8 °F 9.1 °F 1016.5 in SW 29.6 mph 29.6 mph 78 % 0.3 in 0.0 W/m2 CLR
04:43 12.8 °F 9.1 °F 1016.5 in WSW 40.7 mph 40.7 mph 78 % 0.3 in 0.0 W/m2 CLR
04:48 12.8 °F 9.1 °F 1016.5 in SW 38.9 mph 38.9 mph 78 % 0.3 in 0.0 W/m2 CLR
04:53 12.8 °F 9.1 °F 1016.5 in WSW 44.4 mph 44.4 mph 78 % 0.3 in 0.0 W/m2 CLR
04:58 12.8 °F 9.1 °F 1016.8 in SW 29.6 mph 29.6 mph 78 % 0.3 in 0.0 W/m2 CLR
05:03 12.8 °F 9.1 °F 1016.8 in SW 31.5 mph 31.5 mph 78 % 0.3 in 0.0 W/m2 CLR
05:08 12.8 °F 9.1 °F 1016.8 in WSW 44.4 mph 44.4 mph 78 % 0.3 in 0.0 W/m2 CLR
05:13 12.8 °F 8.8 °F 1017.2 in SW 35.2 mph 35.2 mph 77 % 0.3 in 0.0 W/m2 CLR
05:18 12.8 °F 8.8 °F 1017.2 in SW 37.0 mph 37.0 mph 77 % 0.3 in 0.0 W/m2 CLR
05:28 12.8 °F 8.8 °F 1017.2 in SW 31.5 mph 31.5 mph 77 % 0.3 in 0.0 W/m2 CLR
05:33 12.2 °F 8.3 °F 1017.5 in SW 38.9 mph 38.9 mph 77 % 0.0 in 0.0 W/m2 CLR
05:38 12.8 °F 8.7 °F 1017.5 in WSW 33.8 mph 33.8 mph 76 % 0.0 in 0.0 W/m2 CLR
05:43 12.8 °F 8.7 °F 1017.5 in WSW 31.5 mph 31.5 mph 76 % 0.0 in 0.0 W/m2 CLR
05:48 12.8 °F 8.7 °F 1017.5 in SW 42.6 mph 42.6 mph 76 % 0.0 in 0.0 W/m2 CLR
05:53 12.2 °F 8.1 °F 1017.5 in SSW 31.5 mph 31.5 mph 76 % 0.0 in 0.0 W/m2 CLR
05:58 12.2 °F 8.1 °F 1017.5 in WSW 31.5 mph 31.5 mph 76 % 0.0 in 0.0 W/m2 CLR
06:03 12.2 °F 8.1 °F 1017.5 in SW 38.9 mph 38.9 mph 76 % 0.0 in 0.0 W/m2 CLR
06:08 12.2 °F 8.1 °F 1017.5 in West 43.4 mph 43.4 mph 76 % 0.0 in 0.0 W/m2 CLR
06:13 12.2 °F 7.9 °F 1017.5 in SSW 46.3 mph 46.3 mph 75 % 0.0 in 0.0 W/m2 CLR
06:18 12.2 °F 7.9 °F 1017.5 in WSW 43.4 mph 43.4 mph 75 % 0.0 in 0.0 W/m2 CLR
06:23 12.2 °F 7.9 °F 1017.5 in SW 38.9 mph 38.9 mph 75 % 0.0 in 0.0 W/m2 CLR
06:28 12.2 °F 7.7 °F 1017.8 in SW 53.7 mph 53.7 mph 74 % 0.0 in 0.0 W/m2 CLR
06:33 12.2 °F 7.7 °F 1017.5 in SW 42.6 mph 42.6 mph 74 % 0.0 in 0.0 W/m2 CLR
06:38 12.2 °F 7.7 °F 1017.8 in SW 46.3 mph 46.3 mph 74 % 0.0 in 0.0 W/m2 CLR
06:43 12.2 °F 7.7 °F 1018.2 in SW 38.6 mph 38.6 mph 74 % 0.0 in 0.0 W/m2 CLR
06:48 12.2 °F 7.7 °F 1017.8 in SW 40.7 mph 40.7 mph 74 % 0.0 in 0.0 W/m2 CLR
06:53 12.2 °F 7.5 °F 1017.8 in SW 48.1 mph 48.1 mph 73 % 0.0 in 0.0 W/m2 CLR
06:58 12.2 °F 7.5 °F 1017.8 in SW 48.1 mph 48.1 mph 73 % 0.0 in 0.0 W/m2 CLR
07:03 12.2 °F 7.5 °F 1018.2 in WSW 51.8 mph 51.8 mph 73 % 0.0 in 0.0 W/m2 CLR
07:08 12.2 °F 7.5 °F 1018.2 in SW 37.0 mph 37.0 mph 73 % 0.0 in 0.0 W/m2 CLR
07:13 11.7 °F 7.0 °F 1018.2 in SW 35.4 mph 35.4 mph 73 % 0.0 in 0.0 W/m2 CLR
07:18 11.7 °F 7.0 °F 1018.2 in SSW 31.5 mph 31.5 mph 73 % 0.0 in 0.0 W/m2 CLR
07:23 11.7 °F 7.0 °F 1018.2 in WSW 46.3 mph 46.3 mph 73 % 0.0 in 0.0 W/m2 CLR
07:28 11.7 °F 7.0 °F 1018.5 in SW 51.8 mph 51.8 mph 73 % 0.0 in 0.0 W/m2 OVC
07:33 11.7 °F 7.2 °F 1018.8 in SW 48.1 mph 48.1 mph 74 % 0.0 in 0.0 W/m2 OVC
07:38 11.7 °F 7.2 °F 1018.8 in WSW 33.3 mph 33.3 mph 74 % 0.0 in 5.0 W/m2 OVC
07:43 11.7 °F 7.2 °F 1018.8 in SW 46.3 mph 46.3 mph 74 % 0.0 in 7.0 W/m2 OVC
07:48 11.7 °F 7.2 °F 1018.8 in SSW 38.9 mph 38.9 mph 74 % 0.0 in 7.0 W/m2 OVC
07:53 11.7 °F 7.2 °F 1019.2 in SSW 37.0 mph 37.0 mph 74 % 0.0 in 9.0 W/m2 OVC
07:58 11.7 °F 7.2 °F 1019.2 in SW 33.3 mph 33.3 mph 74 % 0.0 in 9.0 W/m2 OVC
08:03 11.7 °F 7.2 °F 1019.5 in SW 37.0 mph 37.0 mph 74 % 0.0 in 11.0 W/m2 OVC
08:08 11.7 °F 7.2 °F 1019.5 in SSW 40.7 mph 40.7 mph 74 % 0.0 in 11.0 W/m2 OVC
08:13 11.7 °F 7.0 °F 1019.9 in SSW 35.2 mph 35.2 mph 73 % 0.0 in 12.0 W/m2 OVC
08:18 11.7 °F 7.0 °F 1019.9 in SW 42.6 mph 42.6 mph 73 % 0.0 in 12.0 W/m2 OVC
08:23 11.7 °F 7.0 °F 1019.9 in SW 35.2 mph 35.2 mph 73 % 0.0 in 14.0 W/m2 OVC
08:28 11.1 °F 6.7 °F 1019.9 in SW 35.2 mph 35.2 mph 74 % 0.0 in 14.0 W/m2 OVC
08:34 11.1 °F 6.7 °F 1019.9 in WSW 42.6 mph 42.6 mph 74 % 0.0 in 16.0 W/m2 OVC
08:39 11.1 °F 6.7 °F 1020.2 in WSW 42.6 mph 42.6 mph 74 % 0.0 in 19.0 W/m2 OVC
08:44 11.1 °F 6.7 °F 1020.2 in SW 33.8 mph 33.8 mph 74 % 0.0 in 28.0 W/m2 BKN
08:49 11.1 °F 6.7 °F 1020.2 in SSW 50.0 mph 50.0 mph 74 % 0.0 in 77.0 W/m2 BKN
08:54 11.7 °F 7.0 °F 1020.2 in WSW 42.6 mph 42.6 mph 73 % 0.0 in 58.0 W/m2 BKN
08:59 11.7 °F 7.0 °F 1020.5 in WSW 55.5 mph 55.5 mph 73 % 0.0 in 144.0 W/m2 BKN
09:04 11.7 °F 7.0 °F 1020.5 in SSW 31.5 mph 32.7 mph 73 % 0.0 in 195.0 W/m2 FEW
09:09 11.7 °F 6.8 °F 1020.5 in SSW 37.0 mph 37.0 mph 72 % 0.0 in 156.0 W/m2 CLR
09:14 11.7 °F 6.4 °F 1020.9 in SW 46.3 mph 46.3 mph 70 % 0.0 in 220.0 W/m2 CLR
09:19 12.2 °F 6.9 °F 1020.9 in SW 46.3 mph 46.3 mph 70 % 0.0 in 192.0 W/m2 CLR
09:24 12.2 °F 6.7 °F 1020.9 in SW 38.9 mph 38.9 mph 69 % 0.0 in 176.0 W/m2 CLR
09:29 12.2 °F 6.7 °F 1021.2 in SW 27.8 mph 27.8 mph 69 % 0.0 in 232.0 W/m2 CLR
09:34 12.2 °F 6.5 °F 1021.2 in SSW 45.1 mph 45.1 mph 68 % 0.0 in 279.0 W/m2 CLR
09:39 12.2 °F 6.5 °F 1021.6 in WSW 42.6 mph 42.6 mph 68 % 0.0 in 290.0 W/m2 CLR
09:44 12.2 °F 6.5 °F 1021.6 in WSW 42.6 mph 42.6 mph 68 % 0.0 in 301.0 W/m2 CLR
09:49 12.8 °F 6.8 °F 1021.6 in WSW 42.6 mph 42.6 mph 67 % 0.0 in 313.0 W/m2 CLR
09:54 12.8 °F 6.8 °F 1021.2 in SW 33.3 mph 33.3 mph 67 % 0.0 in 322.0 W/m2 CLR
09:59 12.8 °F 6.3 °F 1021.2 in SW 42.6 mph 42.6 mph 65 % 0.0 in 339.0 W/m2 CLR
10:04 12.8 °F 6.3 °F 1021.2 in WSW 48.1 mph 48.1 mph 65 % 0.0 in 348.0 W/m2 CLR
10:09 12.8 °F 6.1 °F 1021.2 in SW 40.2 mph 40.2 mph 64 % 0.0 in 360.0 W/m2 CLR
10:14 13.3 °F 6.4 °F 1021.2 in WSW 51.8 mph 51.8 mph 63 % 0.0 in 371.0 W/m2 CLR
10:19 13.3 °F 6.2 °F 1021.2 in SW 61.1 mph 61.1 mph 62 % 0.0 in 387.0 W/m2 CLR
10:24 13.3 °F 6.4 °F 1021.6 in SW 42.6 mph 42.6 mph 63 % 0.0 in 397.0 W/m2 CLR
10:29 13.3 °F 6.4 °F 1021.6 in WSW 44.4 mph 44.4 mph 63 % 0.0 in 406.0 W/m2 CLR
10:34 13.3 °F 6.2 °F 1021.6 in WSW 57.4 mph 57.4 mph 62 % 0.0 in 417.0 W/m2 CLR
10:39 13.3 °F 6.2 °F 1021.6 in SW 54.7 mph 54.7 mph 62 % 0.0 in 427.0 W/m2 CLR
10:44 13.3 °F 6.2 °F 1021.2 in SW 54.7 mph 54.7 mph 62 % 0.0 in 438.0 W/m2 CLR
10:49 13.3 °F 6.2 °F 1021.6 in WSW 43.4 mph 43.4 mph 62 % 0.0 in 446.0 W/m2 CLR
10:54 13.9 °F 6.5 °F 1021.6 in SW 50.0 mph 50.0 mph 61 % 0.0 in 454.0 W/m2 CLR
10:59 13.9 °F 6.5 °F 1021.6 in WSW 50.0 mph 50.0 mph 61 % 0.0 in 462.0 W/m2 CLR
11:04 13.9 °F 6.5 °F 1021.6 in SW 38.9 mph 38.9 mph 61 % 0.0 in 468.0 W/m2 CLR
11:09 13.9 °F 6.0 °F 1021.6 in SW 51.8 mph 51.8 mph 59 % 0.0 in 480.0 W/m2 CLR
11:14 13.9 °F 6.0 °F 1021.9 in SW 59.2 mph 59.2 mph 59 % 0.0 in 503.0 W/m2 CLR
11:19 13.9 °F 6.0 °F 1021.6 in West 42.6 mph 42.6 mph 59 % 0.0 in 503.0 W/m2 CLR
11:24 14.4 °F 6.3 °F 1021.6 in SW 42.6 mph 42.6 mph 58 % 0.0 in 508.0 W/m2 CLR
11:29 14.4 °F 6.3 °F 1021.6 in WSW 42.6 mph 42.6 mph 58 % 0.0 in 496.0 W/m2 CLR
11:34 14.4 °F 6.3 °F 1021.6 in WSW 40.7 mph 40.7 mph 58 % 0.0 in 527.0 W/m2 CLR
11:39 14.4 °F 6.0 °F 1021.6 in SW 51.8 mph 51.8 mph 57 % 0.0 in 538.0 W/m2 CLR
11:44 14.4 °F 6.3 °F 1021.6 in SW 53.7 mph 53.7 mph 58 % 0.0 in 531.0 W/m2 CLR
11:49 14.4 °F 6.3 °F 1021.6 in SW 53.1 mph 53.1 mph 58 % 0.0 in 536.0 W/m2 CLR
11:54 14.4 °F 6.3 °F 1021.6 in SW 51.8 mph 51.8 mph 58 % 0.0 in 550.0 W/m2 CLR
11:59 14.4 °F 6.0 °F 1021.2 in SW 48.1 mph 48.1 mph 57 % 0.0 in 568.0 W/m2 CLR
12:04 15.0 °F 6.6 °F 1021.2 in WSW 53.1 mph 53.1 mph 57 % 0.0 in 547.0 W/m2 CLR
12:09 15.0 °F 6.6 °F 1021.2 in West 59.2 mph 59.2 mph 57 % 0.0 in 548.0 W/m2 CLR
12:14 15.0 °F 6.6 °F 1021.2 in WSW 61.1 mph 61.1 mph 57 % 0.0 in 548.0 W/m2 CLR
12:19 15.0 °F 6.6 °F 1021.6 in SW 68.5 mph 68.5 mph 57 % 0.0 in 552.0 W/m2 CLR
12:24 15.0 °F 6.3 °F 1021.2 in WSW 62.9 mph 62.9 mph 56 % 0.0 in 548.0 W/m2 CLR
12:29 15.0 °F 6.6 °F 1021.2 in SW 50.0 mph 50.0 mph 57 % 0.0 in 555.0 W/m2 CLR
12:34 15.0 °F 6.6 °F 1021.2 in SW 64.8 mph 64.8 mph 57 % 0.0 in 561.0 W/m2 CLR
12:39 15.0 °F 6.6 °F 1021.2 in SW 46.3 mph 46.3 mph 57 % 0.0 in 555.0 W/m2 CLR
12:44 15.0 °F 6.3 °F 1021.2 in SW 57.9 mph 57.9 mph 56 % 0.0 in 564.0 W/m2 CLR
12:49 15.6 °F 7.1 °F 1020.9 in SSW 51.8 mph 51.8 mph 57 % 0.0 in 605.0 W/m2 CLR
12:54 15.0 °F 6.3 °F 1021.2 in SW 57.4 mph 57.4 mph 56 % 0.0 in 606.0 W/m2 CLR
12:59 15.0 °F 6.3 °F 1021.2 in WSW 53.7 mph 53.7 mph 56 % 0.0 in 596.0 W/m2 CLR
13:04 15.6 °F 6.8 °F 1021.2 in SW 42.6 mph 42.6 mph 56 % 0.0 in 715.0 W/m2 CLR
13:05 15.6 °F 6.8 °F 1021.2 in SW 42.6 mph 42.6 mph 56 % 0.0 in 712.0 W/m2 CLR
13:10 15.6 °F 6.3 °F 1021.2 in SW 62.9 mph 62.9 mph 54 % 0.0 in 603.0 W/m2 CLR
13:15 15.6 °F 6.6 °F 1021.2 in WSW 46.3 mph 46.3 mph 55 % 0.0 in 629.0 W/m2 CLR
13:20 15.6 °F 6.6 °F 1021.2 in West 46.3 mph 46.3 mph 55 % 0.0 in 640.0 W/m2 CLR
13:25 15.6 °F 6.3 °F 1021.2 in WSW 51.8 mph 51.8 mph 54 % 0.0 in 698.0 W/m2 CLR
13:30 15.0 °F 6.0 °F 1021.6 in SW 55.5 mph 55.5 mph 55 % 0.0 in 285.0 W/m2 CLR
13:35 15.0 °F 6.0 °F 1021.2 in SW 51.8 mph 51.8 mph 55 % 0.0 in 339.0 W/m2 CLR
13:40 15.0 °F 6.0 °F 1021.2 in WSW 33.3 mph 33.3 mph 55 % 0.0 in 624.0 W/m2 CLR
13:45 15.6 °F 6.6 °F 1021.2 in WSW 44.4 mph 44.4 mph 55 % 0.0 in 473.0 W/m2 CLR
13:50 16.1 °F 6.8 °F 1021.2 in SSW 46.3 mph 46.3 mph 54 % 0.0 in 578.0 W/m2 CLR
13:55 16.1 °F 6.8 °F 1021.2 in WSW 53.1 mph 53.1 mph 54 % 0.0 in 534.0 W/m2 CLR
14:00 15.6 °F 6.3 °F 1021.2 in WSW 53.7 mph 53.7 mph 54 % 0.0 in 527.0 W/m2 CLR
14:05 15.6 °F 6.3 °F 1021.2 in SW 37.0 mph 37.0 mph 54 % 0.0 in 548.0 W/m2 CLR
14:10 16.1 °F 6.5 °F 1021.2 in SW 40.2 mph 40.2 mph 53 % 0.0 in 573.0 W/m2 CLR
14:15 16.1 °F 6.5 °F 1021.2 in SW 37.0 mph 37.0 mph 53 % 0.0 in 132.0 W/m2 CLR
14:20 15.0 °F 5.8 °F 1021.2 in SW 40.2 mph 40.2 mph 54 % 0.0 in 610.0 W/m2 CLR
14:25 15.0 °F 6.0 °F 1021.2 in SW 42.6 mph 42.6 mph 55 % 0.0 in 244.0 W/m2 CLR
14:30 15.0 °F 6.0 °F 1021.2 in SW 24.1 mph 24.1 mph 55 % 0.0 in 605.0 W/m2 CLR
14:35 16.1 °F 6.5 °F 1021.2 in SSW 50.0 mph 50.0 mph 53 % 0.0 in 536.0 W/m2 CLR
14:40 15.6 °F 6.3 °F 1021.2 in SW 40.7 mph 40.7 mph 54 % 0.0 in 482.0 W/m2 CLR
14:45 15.6 °F 6.0 °F 1020.9 in WSW 46.3 mph 46.3 mph 53 % 0.0 in 434.0 W/m2 CLR
14:50 15.6 °F 6.0 °F 1020.9 in SW 48.1 mph 48.1 mph 53 % 0.0 in 457.0 W/m2 CLR
14:55 15.6 °F 6.3 °F 1020.9 in WSW 35.2 mph 35.2 mph 54 % 0.0 in 454.0 W/m2 CLR
15:00 15.6 °F 6.0 °F 1020.9 in West 53.7 mph 53.7 mph 53 % 0.0 in 420.0 W/m2 CLR
15:05 15.6 °F 6.3 °F 1020.9 in SW 50.0 mph 50.0 mph 54 % 0.0 in 404.0 W/m2 CLR
15:10 15.6 °F 6.0 °F 1020.5 in WSW 33.3 mph 33.3 mph 53 % 0.0 in 388.0 W/m2 CLR
15:15 15.6 °F 5.4 °F 1020.9 in SW 68.5 mph 68.5 mph 51 % 0.0 in 369.0 W/m2 CLR
15:20 15.0 °F 5.2 °F 1020.5 in West 46.3 mph 46.3 mph 52 % 0.0 in 364.0 W/m2 CLR
15:25 15.0 °F 5.5 °F 1020.9 in SW 50.0 mph 50.0 mph 53 % 0.0 in 352.0 W/m2 CLR
15:30 15.0 °F 5.2 °F 1020.9 in West 55.5 mph 55.5 mph 52 % 0.0 in 339.0 W/m2 CLR
15:35 15.0 °F 5.5 °F 1020.5 in SW 42.6 mph 42.6 mph 53 % 0.0 in 323.0 W/m2 CLR
15:40 15.0 °F 5.5 °F 1020.5 in SW 45.1 mph 45.1 mph 53 % 0.0 in 313.0 W/m2 CLR
15:45 15.0 °F 5.5 °F 1020.5 in SW 48.1 mph 48.1 mph 53 % 0.0 in 302.0 W/m2 CLR
15:50 15.0 °F 5.5 °F 1020.9 in WSW 35.2 mph 35.2 mph 53 % 0.0 in 294.0 W/m2 CLR
15:55 15.0 °F 5.5 °F 1020.9 in SW 48.1 mph 48.1 mph 53 % 0.0 in 278.0 W/m2 CLR
16:00 15.0 °F 5.8 °F 1020.9 in SW 59.5 mph 59.5 mph 54 % 0.0 in 264.0 W/m2 CLR
16:05 14.4 °F 5.0 °F 1020.9 in SW 59.2 mph 59.2 mph 53 % 0.0 in 246.0 W/m2 CLR
16:10 14.4 °F 5.2 °F 1020.9 in WSW 64.8 mph 64.8 mph 54 % 0.0 in 236.0 W/m2 CLR
16:15 14.4 °F 5.5 °F 1020.9 in SW 61.1 mph 61.1 mph 55 % 0.0 in 213.0 W/m2 CLR
16:20 14.4 °F 5.5 °F 1020.9 in SSW 42.6 mph 42.6 mph 55 % 0.0 in 202.0 W/m2 CLR
16:25 14.4 °F 5.5 °F 1020.9 in WSW 55.5 mph 55.5 mph 55 % 0.0 in 181.0 W/m2 CLR
16:26 14.4 °F 5.5 °F 1021.2 in NW 44.4 mph 44.4 mph 55 % 0.0 in 181.0 W/m2 CLR
16:31 13.9 °F 5.0 °F 1021.2 in WSW 66.6 mph 66.6 mph 55 % 0.0 in 162.0 W/m2 CLR
16:36 13.9 °F 5.5 °F 1021.2 in SW 53.7 mph 53.7 mph 57 % 0.0 in 149.0 W/m2 CLR
16:41 13.9 °F 5.5 °F 1021.2 in SW 37.0 mph 37.0 mph 57 % 0.0 in 130.0 W/m2 CLR
16:46 13.3 °F 5.2 °F 1021.2 in SW 51.8 mph 51.8 mph 58 % 0.0 in 118.0 W/m2 CLR
16:51 13.3 °F 5.2 °F 1021.2 in WSW 41.8 mph 41.8 mph 58 % 0.0 in 98.0 W/m2 CLR
16:56 13.3 °F 5.2 °F 1021.2 in WSW 55.5 mph 55.5 mph 58 % 0.0 in 84.0 W/m2 FEW
17:01 13.3 °F 5.2 °F 1021.6 in SW 48.1 mph 48.1 mph 58 % 0.0 in 67.0 W/m2 FEW
17:06 13.3 °F 5.2 °F 1021.2 in WSW 44.4 mph 44.4 mph 58 % 0.0 in 56.0 W/m2 SCT
17:11 13.3 °F 5.5 °F 1021.2 in SW 40.7 mph 40.7 mph 59 % 0.0 in 46.0 W/m2 SCT
17:16 12.8 °F 4.9 °F 1021.6 in SW 51.8 mph 51.8 mph 59 % 0.0 in 35.0 W/m2 BKN
17:21 12.8 °F 4.9 °F 1021.6 in SW 44.4 mph 44.4 mph 59 % 0.0 in 25.0 W/m2 BKN
17:26 12.8 °F 4.9 °F 1021.6 in WSW 55.5 mph 55.5 mph 59 % 0.0 in 18.0 W/m2 BKN
17:31 12.8 °F 4.9 °F 1021.6 in WSW 55.5 mph 55.5 mph 59 % 0.0 in 12.0 W/m2 BKN
17:36 12.8 °F 5.2 °F 1021.6 in WSW 56.3 mph 56.3 mph 60 % 0.0 in 11.0 W/m2 BKN
17:41 12.8 °F 5.4 °F 1021.6 in WSW 46.3 mph 46.3 mph 61 % 0.0 in 9.0 W/m2 BKN
17:46 12.8 °F 5.4 °F 1021.9 in SW 42.6 mph 42.6 mph 61 % 0.0 in 7.0 W/m2 BKN
17:51 12.2 °F 4.9 °F 1021.9 in SSW 43.4 mph 43.4 mph 61 % 0.0 in 5.0 W/m2 OVC
17:56 12.2 °F 4.9 °F 1021.6 in WSW 40.7 mph 40.7 mph 61 % 0.0 in 0.0 W/m2 OVC
18:01 12.2 °F 5.2 °F 1021.6 in SW 48.1 mph 48.1 mph 62 % 0.0 in 0.0 W/m2 CLR
18:06 12.2 °F 5.2 °F 1021.6 in SW 42.6 mph 42.6 mph 62 % 0.0 in 0.0 W/m2 CLR
18:11 12.2 °F 5.2 °F 1021.6 in West 42.6 mph 42.6 mph 62 % 0.0 in 0.0 W/m2 CLR
18:16 12.2 °F 5.2 °F 1021.9 in SW 38.9 mph 38.9 mph 62 % 0.0 in 0.0 W/m2 CLR
18:21 11.7 °F 4.8 °F 1021.9 in SW 48.1 mph 48.1 mph 63 % 0.0 in 0.0 W/m2 CLR
18:26 11.7 °F 4.8 °F 1021.9 in West 42.6 mph 42.6 mph 63 % 0.0 in 0.0 W/m2 CLR
18:31 11.7 °F 4.8 °F 1021.9 in WSW 42.6 mph 42.6 mph 63 % 0.0 in 0.0 W/m2 CLR
18:36 11.7 °F 4.8 °F 1021.9 in WSW 44.4 mph 44.4 mph 63 % 0.0 in 0.0 W/m2 CLR
18:41 11.7 °F 4.8 °F 1021.9 in WSW 40.7 mph 40.7 mph 63 % 0.0 in 0.0 W/m2 CLR
18:46 11.7 °F 5.1 °F 1021.9 in WSW 41.8 mph 41.8 mph 64 % 0.0 in 0.0 W/m2 CLR
18:51 11.7 °F 5.1 °F 1022.2 in SW 48.1 mph 48.1 mph 64 % 0.0 in 0.0 W/m2 CLR
18:56 11.7 °F 5.1 °F 1021.9 in WSW 33.3 mph 33.3 mph 64 % 0.0 in 0.0 W/m2 CLR
19:01 11.7 °F 5.1 °F 1022.2 in WSW 40.7 mph 40.7 mph 64 % 0.0 in 0.0 W/m2 CLR
19:07 11.7 °F 5.1 °F 1022.2 in West 48.3 mph 48.3 mph 64 % 0.0 in 0.0 W/m2 CLR
19:12 11.7 °F 5.1 °F 1022.6 in WSW 42.6 mph 42.6 mph 64 % 0.0 in 0.0 W/m2 CLR
19:17 11.7 °F 5.3 °F 1022.6 in WSW 42.6 mph 42.6 mph 65 % 0.0 in 0.0 W/m2 CLR
19:22 11.7 °F 5.3 °F 1022.9 in SW 55.5 mph 55.5 mph 65 % 0.0 in 0.0 W/m2 CLR
19:27 11.1 °F 5.0 °F 1022.9 in SSW 53.7 mph 53.7 mph 66 % 0.0 in 0.0 W/m2 CLR
19:32 11.1 °F 5.0 °F 1022.9 in SW 35.2 mph 35.2 mph 66 % 0.0 in 0.0 W/m2 CLR
19:37 11.1 °F 5.2 °F 1022.6 in SW 46.7 mph 46.7 mph 67 % 0.0 in 0.0 W/m2 CLR
19:42 11.1 °F 5.2 °F 1022.9 in SW 50.0 mph 50.0 mph 67 % 0.0 in 0.0 W/m2 CLR
19:47 11.1 °F 5.2 °F 1022.6 in SW 37.0 mph 37.0 mph 67 % 0.0 in 0.0 W/m2 CLR
19:52 11.1 °F 5.2 °F 1022.9 in SW 53.7 mph 53.7 mph 67 % 0.0 in 0.0 W/m2 CLR
19:57 11.1 °F 5.2 °F 1022.9 in SW 51.8 mph 51.8 mph 67 % 0.0 in 0.0 W/m2 CLR
20:02 11.1 °F 5.2 °F 1022.9 in SSW 42.6 mph 42.6 mph 67 % 0.0 in 0.0 W/m2 CLR
20:07 11.1 °F 5.2 °F 1022.9 in WSW 48.1 mph 48.1 mph 67 % 0.0 in 0.0 W/m2 CLR
20:12 11.1 °F 5.2 °F 1022.9 in SW 41.8 mph 41.8 mph 67 % 0.0 in 0.0 W/m2 CLR
20:17 10.6 °F 4.7 °F 1022.9 in WSW 44.4 mph 44.4 mph 67 % 0.0 in 0.0 W/m2 CLR
20:22 10.6 °F 4.7 °F 1022.9 in WSW 44.4 mph 44.4 mph 67 % 0.0 in 0.0 W/m2 CLR
20:27 10.6 °F 4.9 °F 1022.9 in SW 44.4 mph 44.4 mph 68 % 0.0 in 0.0 W/m2 CLR
20:32 10.6 °F 4.7 °F 1023.2 in WSW 40.7 mph 40.7 mph 67 % 0.0 in 0.0 W/m2 CLR
20:37 10.6 °F 4.9 °F 1023.2 in WSW 51.8 mph 51.8 mph 68 % 0.0 in 0.0 W/m2 CLR
20:42 10.6 °F 4.9 °F 1023.2 in WSW 49.9 mph 49.9 mph 68 % 0.0 in 0.0 W/m2 CLR
20:47 10.6 °F 4.9 °F 1023.2 in West 42.6 mph 42.6 mph 68 % 0.0 in 0.0 W/m2 CLR
20:52 10.6 °F 4.9 °F 1023.2 in West 51.5 mph 51.5 mph 68 % 0.0 in 0.0 W/m2 CLR
20:57 10.6 °F 4.9 °F 1022.9 in WSW 48.3 mph 48.3 mph 68 % 0.0 in 0.0 W/m2 CLR
21:02 10.6 °F 4.9 °F 1023.2 in WSW 38.9 mph 38.9 mph 68 % 0.0 in 0.0 W/m2 CLR
21:07 10.6 °F 4.9 °F 1022.9 in SW 42.6 mph 42.6 mph 68 % 0.0 in 0.0 W/m2 CLR
21:12 10.6 °F 5.1 °F 1023.2 in WSW 40.7 mph 40.7 mph 69 % 0.0 in 0.0 W/m2 CLR
21:17 10.6 °F 5.1 °F 1023.2 in SW 40.7 mph 40.7 mph 69 % 0.0 in 0.0 W/m2 CLR
21:22 10.6 °F 5.1 °F 1023.2 in SW 42.6 mph 42.6 mph 69 % 0.0 in 0.0 W/m2 CLR
21:28 10.6 °F 5.1 °F 1023.2 in SW 43.4 mph 43.4 mph 69 % 0.0 in 0.0 W/m2 CLR
21:33 10.6 °F 5.1 °F 1023.2 in West 46.3 mph 46.3 mph 69 % 0.0 in 0.0 W/m2 CLR
21:38 10.6 °F 5.1 °F 1023.2 in WSW 37.0 mph 37.0 mph 69 % 0.0 in 0.0 W/m2 CLR
21:43 10.6 °F 4.9 °F 1023.2 in WSW 44.4 mph 44.4 mph 68 % 0.0 in 0.0 W/m2
21:48 10.6 °F 4.9 °F 1023.2 in SW 40.7 mph 40.7 mph 68 % 0.0 in 0.0 W/m2 CLR
21:53 10.6 °F 4.9 °F 1023.2 in SW 51.8 mph 51.8 mph 68 % 0.0 in 0.0 W/m2 CLR
21:58 10.6 °F 4.9 °F 1023.6 in West 38.9 mph 38.9 mph 68 % 0.0 in 0.0 W/m2 CLR
22:03 10.6 °F 4.9 °F 1023.6 in WSW 40.7 mph 40.7 mph 68 % 0.0 in 0.0 W/m2 CLR
22:08 10.6 °F 4.9 °F 1023.6 in SW 48.1 mph 48.1 mph 68 % 0.0 in 0.0 W/m2 CLR
22:13 10.6 °F 4.9 °F 1023.2 in WSW 50.0 mph 50.0 mph 68 % 0.0 in 0.0 W/m2 CLR
22:18 10.6 °F 4.9 °F 1023.2 in SW 48.1 mph 48.1 mph 68 % 0.0 in 0.0 W/m2 CLR
22:23 10.6 °F 4.9 °F 1023.6 in SW 46.3 mph 46.3 mph 68 % 0.0 in 0.0 W/m2 CLR
22:33 10.6 °F 4.9 °F 1023.6 in SW 44.4 mph 44.4 mph 68 % 0.0 in 0.0 W/m2 CLR
22:38 10.6 °F 4.9 °F 1023.2 in SW 55.5 mph 55.5 mph 68 % 0.0 in 0.0 W/m2 CLR
22:43 10.6 °F 4.9 °F 1022.9 in WSW 59.2 mph 59.2 mph 68 % 0.0 in 0.0 W/m2 CLR
22:48 10.6 °F 4.9 °F 1023.2 in SW 44.4 mph 44.4 mph 68 % 0.0 in 0.0 W/m2 CLR
22:53 10.6 °F 4.9 °F 1023.6 in WSW 42.6 mph 42.6 mph 68 % 0.0 in 0.0 W/m2 CLR
22:58 10.6 °F 4.9 °F 1023.6 in SW 31.5 mph 31.5 mph 68 % 0.0 in 0.0 W/m2 CLR
23:03 10.0 °F 4.6 °F 1023.9 in WSW 31.5 mph 31.5 mph 69 % 0.0 in 0.0 W/m2 CLR
23:08 10.0 °F 4.6 °F 1023.9 in WSW 40.7 mph 40.7 mph 69 % 0.0 in 0.0 W/m2 CLR
23:13 10.6 °F 5.1 °F 1023.6 in SW 42.6 mph 42.6 mph 69 % 0.0 in 0.0 W/m2 CLR
23:18 10.0 °F 4.6 °F 1023.6 in WSW 40.2 mph 40.2 mph 69 % 0.0 in 0.0 W/m2 CLR
23:23 10.0 °F 4.6 °F 1023.2 in SW 44.4 mph 44.4 mph 69 % 0.0 in 0.0 W/m2 CLR
23:28 10.0 °F 4.6 °F 1023.6 in WSW 48.1 mph 48.1 mph 69 % 0.0 in 0.0 W/m2 CLR
23:33 10.0 °F 4.6 °F 1023.6 in SW 53.7 mph 53.7 mph 69 % 0.0 in 0.0 W/m2 CLR
23:38 10.0 °F 4.8 °F 1023.2 in SW 53.7 mph 53.7 mph 70 % 0.0 in 0.0 W/m2 CLR
23:43 10.0 °F 4.8 °F 1023.6 in SW 37.0 mph 37.0 mph 70 % 0.0 in 0.0 W/m2 CLR
23:48 10.0 °F 5.0 °F 1023.2 in SW 38.9 mph 38.9 mph 71 % 0.0 in 0.0 W/m2 CLR
23:53 10.0 °F 5.0 °F 1023.2 in SW 48.1 mph 48.1 mph 71 % 0.0 in 0.0 W/m2 CLR
23:58 10.0 °F 5.0 °F 1023.2 in WSW 37.0 mph 37.0 mph 71 % 0.0 in 0.0 W/m2 CLR
Lo Temps de Massalio
Compliments of Weather Underground - 1.25 mb